Time;durP1;ratioP1;P1;durP2;ratioP2;P2;SDS_P1;SDS_P2;PMS_P1;PMS_P2;Temp;Humidity;BMP_temperature;BMP_pressure;BME280_temperature;BME280_humidity;BME280_pressure;Samples;Min_cycle;Max_cycle;Signal;HPM_P1;HPM_P2
2023/04/28 00:00:04;;;;;;;27.10;15.17;;;12.50;99.90;;;;;;5029338;28;20178;-73
2023/04/28 00:02:30;;;;;;;22.77;14.50;;;12.40;99.90;;;;;;5010244;28;20564;-74
2023/04/28 00:04:56;;;;;;;24.77;15.13;;;12.40;99.90;;;;;;5025150;28;20181;-75
2023/04/28 00:07:22;;;;;;;20.30;14.07;;;12.50;99.90;;;;;;5020807;28;20186;-75
2023/04/28 00:09:48;;;;;;;19.73;14.30;;;12.40;99.90;;;;;;5028056;28;20300;-74
2023/04/28 00:12:13;;;;;;;19.50;14.13;;;12.50;99.90;;;;;;5022922;28;20215;-76
2023/04/28 00:14:39;;;;;;;19.45;13.80;;;12.50;99.90;;;;;;5025470;28;20184;-76
2023/04/28 00:17:05;;;;;;;18.58;13.35;;;12.50;99.90;;;;;;5024018;28;20187;-75
2023/04/28 00:19:31;;;;;;;20.52;13.23;;;12.10;99.90;;;;;;5026891;28;20196;-73
2023/04/28 00:21:57;;;;;;;18.20;13.07;;;12.50;99.90;;;;;;5024769;28;20636;-73
2023/04/28 00:24:22;;;;;;;20.13;13.10;;;12.60;99.90;;;;;;5023820;28;20549;-74
2023/04/28 00:26:48;;;;;;;20.13;12.97;;;12.60;99.90;;;;;;5025603;28;20205;-74
2023/04/28 00:29:13;;;;;;;17.40;11.37;;;12.60;99.90;;;;;;5003386;28;20183;-73
2023/04/28 00:31:39;;;;;;;19.27;12.80;;;12.70;99.90;;;;;;5025449;28;20209;-73
2023/04/28 00:34:05;;;;;;;17.73;11.60;;;12.70;99.90;;;;;;5017446;28;20624;-74
2023/04/28 00:36:31;;;;;;;16.67;11.67;;;12.70;99.90;;;;;;5022270;28;20182;-74
2023/04/28 00:38:57;;;;;;;16.70;11.63;;;12.80;99.90;;;;;;5017397;28;20174;-74
2023/04/28 00:41:23;;;;;;;14.40;11.27;;;12.80;99.90;;;;;;5025879;28;20170;-73
2023/04/28 00:43:49;;;;;;;16.93;11.20;;;12.80;99.90;;;;;;5024261;28;20190;-73
2023/04/28 00:46:28;;;;;;;16.63;11.37;;;12.70;99.90;;;;;;5022987;28;20173;-73
2023/04/28 00:48:54;;;;;;;14.10;10.50;;;12.80;99.90;;;;;;5023384;28;20204;-73
2023/04/28 00:51:20;;;;;;;15.07;10.80;;;12.80;99.90;;;;;;5023975;28;20328;-73
2023/04/28 00:53:46;;;;;;;11.27;8.33;;;12.80;99.90;;;;;;5027847;28;20196;-73
2023/04/28 00:56:12;;;;;;;12.77;9.20;;;12.80;99.90;;;;;;5025422;28;20170;-72
2023/04/28 00:58:38;;;;;;;12.55;8.68;;;12.60;99.90;;;;;;5027821;28;20258;-72
2023/04/28 01:01:05;;;;;;;14.60;10.10;;;12.80;99.90;;;;;;5009714;28;20182;-74
2023/04/28 01:03:34;;;;;;;14.52;9.77;;;12.90;99.90;;;;;;5021937;28;20190;-74
2023/04/28 01:06:00;;;;;;;10.00;7.93;;;12.90;99.90;;;;;;5021077;28;20375;-73
2023/04/28 01:08:30;;;;;;;12.53;9.27;;;13.00;99.90;;;;;;5025556;28;20459;-72
2023/04/28 01:10:56;;;;;;;9.40;7.13;;;13.00;99.90;;;;;;5021319;28;20179;-72
2023/04/28 01:13:21;;;;;;;10.77;8.03;;;13.00;99.90;;;;;;5028295;28;20585;-73
2023/04/28 01:15:47;;;;;;;11.30;8.10;;;13.00;99.90;;;;;;5021285;28;20179;-73
2023/04/28 01:18:14;;;;;;;10.67;6.60;;;13.00;99.90;;;;;;5024864;28;20182;-73
2023/04/28 01:20:40;;;;;;;11.73;8.53;;;13.00;99.90;;;;;;5026856;28;20192;-73
2023/04/28 01:23:14;;;;;;;7.83;4.83;;;12.90;99.90;;;;;;5027271;28;20186;-73
2023/04/28 01:25:40;;;;;;;6.80;4.50;;;13.00;99.90;;;;;;5024647;28;20687;-73
2023/04/28 01:28:07;;;;;;;4.90;3.70;;;13.00;99.90;;;;;;5028188;28;20234;-72
2023/04/28 01:30:32;;;;;;;6.87;4.13;;;13.10;99.90;;;;;;5027093;28;20201;-73
2023/04/28 01:32:58;;;;;;;4.87;3.63;;;13.10;99.90;;;;;;5024969;28;20534;-73
2023/04/28 01:35:24;;;;;;;6.90;3.73;;;13.10;99.90;;;;;;5026787;28;20184;-73
2023/04/28 01:37:49;;;;;;;4.27;3.60;;;13.10;99.90;;;;;;5024962;28;20649;-73
2023/04/28 01:40:15;;;;;;;4.87;3.53;;;13.00;99.90;;;;;;5028278;28;20232;-72
2023/04/28 01:42:40;;;;;;;4.03;3.30;;;13.10;99.90;;;;;;5028628;28;20712;-73
2023/04/28 01:45:07;;;;;;;4.97;3.63;;;13.10;99.90;;;;;;5025059;28;20268;-73
2023/04/28 01:47:32;;;;;;;4.20;3.60;;;13.10;99.90;;;;;;5025392;28;20186;-73
2023/04/28 01:49:58;;;;;;;4.00;3.30;;;13.10;99.90;;;;;;5012956;28;20169;-73
2023/04/28 01:52:24;;;;;;;4.83;3.77;;;12.90;99.90;;;;;;5021677;28;20264;-73
2023/04/28 01:54:49;;;;;;;4.60;3.50;;;13.00;99.90;;;;;;5026973;28;20273;-73
2023/04/28 01:57:15;;;;;;;4.23;3.47;;;12.90;99.90;;;;;;5026846;28;20178;-73
2023/04/28 01:59:41;;;;;;;5.20;3.17;;;13.00;99.90;;;;;;5026385;28;20637;-74
2023/04/28 02:02:07;;;;;;;3.53;3.00;;;12.90;99.90;;;;;;5027941;28;20174;-73
2023/04/28 02:04:32;;;;;;;3.60;2.90;;;12.90;99.90;;;;;;5025290;28;20622;-74
2023/04/28 02:06:58;;;;;;;3.67;2.60;;;12.90;99.90;;;;;;5028479;28;20181;-74
2023/04/28 02:09:24;;;;;;;3.70;2.80;;;12.90;99.90;;;;;;5022656;28;20293;-74
2023/04/28 02:11:50;;;;;;;3.57;2.70;;;;;;;;;;5027354;28;20212;-75
2023/04/28 02:14:16;;;;;;;3.77;2.37;;;12.80;99.90;;;;;;5026960;28;20181;-74
2023/04/28 02:16:41;;;;;;;4.37;2.50;;;12.90;99.90;;;;;;5027372;28;20228;-73
2023/04/28 02:19:07;;;;;;;3.07;2.30;;;13.10;99.90;;;;;;5025799;28;20174;-74
2023/04/28 02:21:33;;;;;;;2.90;2.33;;;12.80;99.90;;;;;;5027569;28;20182;-74
2023/04/28 02:23:59;;;;;;;3.30;2.70;;;;;;;;;;5026727;28;20185;-74
2023/04/28 02:26:24;;;;;;;3.07;2.67;;;12.40;99.90;;;;;;5025685;28;20181;-74
2023/04/28 02:28:50;;;;;;;3.63;2.80;;;;;;;;;;5025823;28;20178;-74
2023/04/28 02:31:16;;;;;;;4.43;2.30;;;12.70;99.90;;;;;;5019337;28;20188;-74
2023/04/28 02:33:42;;;;;;;3.47;2.60;;;12.90;99.90;;;;;;5022081;28;20269;-74
2023/04/28 02:36:08;;;;;;;4.37;2.80;;;12.70;99.90;;;;;;5009501;28;20270;-74
2023/04/28 02:38:34;;;;;;;3.60;2.00;;;12.60;99.90;;;;;;5031082;28;20209;-75
2023/04/28 02:41:04;;;;;;;3.23;2.20;;;12.60;99.90;;;;;;5027594;28;20748;-75
2023/04/28 02:43:30;;;;;;;4.13;2.03;;;12.60;99.90;;;;;;5018962;28;20183;-75
2023/04/28 02:45:56;;;;;;;3.63;1.90;;;12.50;99.90;;;;;;5025186;28;20183;-75
2023/04/28 02:48:23;;;;;;;3.57;1.67;;;12.50;99.90;;;;;;5026108;28;20239;-75
2023/04/28 02:50:49;;;;;;;2.10;1.80;;;12.50;99.90;;;;;;5025135;28;20338;-75
2023/04/28 02:53:14;;;;;;;2.10;1.57;;;12.50;99.90;;;;;;5026960;28;20691;-74
2023/04/28 02:55:40;;;;;;;1.83;1.30;;;12.50;99.90;;;;;;5026413;28;20184;-74
2023/04/28 02:58:05;;;;;;;1.77;1.57;;;12.40;99.90;;;;;;5022172;28;20177;-76
2023/04/28 03:00:31;;;;;;;2.73;1.50;;;12.40;99.90;;;;;;5026962;28;20216;-74
2023/04/28 03:02:57;;;;;;;1.37;1.27;;;12.40;99.90;;;;;;5023894;28;20636;-75
2023/04/28 03:05:23;;;;;;;1.50;1.10;;;12.30;99.90;;;;;;5027912;28;20185;-74
2023/04/28 03:07:48;;;;;;;0.90;0.80;;;12.30;99.90;;;;;;5021936;28;20190;-75
2023/04/28 03:10:14;;;;;;;2.17;0.70;;;12.40;99.90;;;;;;5029862;28;20236;-75
2023/04/28 03:12:40;;;;;;;2.10;0.70;;;12.30;99.90;;;;;;5024404;28;20237;-75
2023/04/28 03:15:07;;;;;;;0.50;0.40;;;12.20;99.90;;;;;;5027346;28;20178;-75
2023/04/28 03:17:35;;;;;;;0.93;0.50;;;12.30;99.90;;;;;;5024705;28;20830;-76
2023/04/28 03:20:04;;;;;;;0.33;0.20;;;12.30;99.90;;;;;;5030098;28;20644;-76
2023/04/28 03:22:30;;;;;;;0.70;0.30;;;12.40;99.90;;;;;;5025326;28;20195;-75
2023/04/28 03:24:56;;;;;;;0.57;0.20;;;12.20;99.90;;;;;;5023767;28;20181;-76
2023/04/28 03:27:22;;;;;;;1.20;0.30;;;12.20;99.90;;;;;;5026314;28;20182;-75
2023/04/28 03:29:47;;;;;;;0.70;0.33;;;12.20;99.90;;;;;;5023713;28;20684;-75
2023/04/28 03:32:13;;;;;;;1.03;0.30;;;12.20;99.90;;;;;;5023131;28;20206;-75
2023/04/28 03:34:38;;;;;;;0.20;0.20;;;12.20;99.90;;;;;;5026179;28;20240;-76
2023/04/28 03:37:04;;;;;;;0.20;0.20;;;12.20;99.90;;;;;;5030637;28;20170;-76
2023/04/28 03:39:30;;;;;;;0.40;0.20;;;12.20;99.90;;;;;;5008411;28;20549;-76
2023/04/28 03:41:55;;;;;;;0.20;0.13;;;12.20;99.90;;;;;;5030216;28;20680;-76
2023/04/28 03:44:22;;;;;;;0.57;0.10;;;12.20;99.90;;;;;;5023189;28;20656;-75
2023/04/28 03:46:48;;;;;;;0.10;0.10;;;12.20;99.90;;;;;;5011015;28;20205;-76
2023/04/28 03:49:14;;;;;;;0.20;0.10;;;12.20;99.90;;;;;;5025887;28;20277;-75
2023/04/28 03:51:40;;;;;;;0.10;0.10;;;12.10;99.90;;;;;;5003753;28;20225;-76
2023/04/28 03:54:05;;;;;;;0.30;0.10;;;12.20;99.90;;;;;;5026146;28;20185;-76
2023/04/28 03:56:31;;;;;;;1.30;0.00;;;12.20;99.90;;;;;;5025990;28;20189;-76
2023/04/28 03:58:57;;;;;;;0.10;0.03;;;12.20;99.90;;;;;;5025692;28;20223;-77
2023/04/28 04:01:23;;;;;;;0.00;0.00;;;12.20;99.90;;;;;;5024894;28;20259;-76
2023/04/28 04:03:48;;;;;;;0.07;0.07;;;12.10;99.90;;;;;;5026739;28;20174;-75
2023/04/28 04:06:14;;;;;;;0.60;0.10;;;12.10;99.90;;;;;;5022445;28;20236;-76
2023/04/28 04:08:40;;;;;;;0.60;0.10;;;12.10;99.90;;;;;;5026194;28;20676;-75
2023/04/28 04:11:05;;;;;;;2.20;0.10;;;12.10;99.90;;;;;;5023926;28;20648;-75
2023/04/28 04:13:31;;;;;;;0.30;0.10;;;12.00;99.90;;;;;;5024692;28;20292;-75
2023/04/28 04:15:57;;;;;;;0.23;0.10;;;12.00;99.90;;;;;;5024990;28;20174;-75
2023/04/28 04:18:22;;;;;;;0.37;0.10;;;12.10;99.90;;;;;;5026101;28;20182;-74
2023/04/28 04:20:49;;;;;;;0.10;0.10;;;12.10;99.90;;;;;;5028699;28;20185;-75
2023/04/28 04:23:15;;;;;;;0.20;0.10;;;12.00;99.90;;;;;;5022623;28;20270;-76
2023/04/28 04:25:41;;;;;;;1.27;0.20;;;12.00;99.90;;;;;;5026104;28;20276;-76
2023/04/28 04:28:07;;;;;;;0.30;0.10;;;13.20;99.90;;;;;;5021497;28;20182;-76
2023/04/28 04:30:33;;;;;;;0.37;0.10;;;12.00;99.90;;;;;;5026416;28;20189;-76
2023/04/28 04:32:58;;;;;;;0.27;0.10;;;;;;;;;;5017055;28;20244;-75
2023/04/28 04:35:25;;;;;;;0.20;0.10;;;;;;;;;;5025763;28;20178;-76
2023/04/28 04:37:50;;;;;;;0.10;0.00;;;12.00;99.90;;;;;;5026702;28;20588;-76
2023/04/28 04:40:16;;;;;;;0.43;0.10;;;12.00;99.90;;;;;;5023304;28;20177;-76
2023/04/28 04:42:42;;;;;;;1.00;0.10;;;;;;;;;;5019868;28;20265;-76
2023/04/28 04:45:08;;;;;;;0.90;0.10;;;12.00;99.90;;;;;;5026190;28;20174;-76
2023/04/28 04:47:34;;;;;;;1.80;0.10;;;12.00;99.90;;;;;;5024025;28;20181;-75
2023/04/28 04:49:59;;;;;;;0.93;0.40;;;11.90;99.90;;;;;;5025629;28;20182;-76
2023/04/28 04:52:25;;;;;;;0.10;0.00;;;;;;;;;;5025555;28;20253;-76
2023/04/28 04:54:51;;;;;;;2.33;0.30;;;11.90;99.90;;;;;;5017570;28;20182;-76
2023/04/28 04:57:17;;;;;;;1.10;0.20;;;12.00;99.90;;;;;;5022556;28;20243;-75
2023/04/28 04:59:42;;;;;;;2.17;0.43;;;11.90;99.90;;;;;;5024271;28;20186;-75
2023/04/28 05:02:08;;;;;;;3.43;0.40;;;11.90;99.90;;;;;;5026976;28;20649;-74
2023/04/28 05:04:33;;;;;;;0.60;0.20;;;11.90;99.90;;;;;;5027349;28;20177;-75
2023/04/28 05:06:59;;;;;;;2.97;0.40;;;11.90;99.90;;;;;;5029775;28;20695;-75
2023/04/28 05:09:25;;;;;;;1.77;0.50;;;11.90;99.90;;;;;;5028005;28;20214;-75
2023/04/28 05:11:51;;;;;;;2.60;0.60;;;11.80;99.90;;;;;;5028915;28;20316;-75
2023/04/28 05:14:16;;;;;;;3.50;0.53;;;11.90;99.90;;;;;;5028033;28;20692;-75
2023/04/28 05:16:42;;;;;;;1.57;0.20;;;11.90;99.90;;;;;;5025841;28;20720;-75
2023/04/28 05:19:08;;;;;;;1.27;0.20;;;11.80;99.90;;;;;;5027719;28;20218;-75
2023/04/28 05:21:34;;;;;;;1.37;0.20;;;11.90;99.90;;;;;;5027521;28;20177;-75
2023/04/28 05:24:01;;;;;;;2.87;0.30;;;11.80;99.90;;;;;;5028335;28;20205;-75
2023/04/28 05:26:27;;;;;;;2.27;0.33;;;;;;;;;;5020500;28;20186;-75
2023/04/28 05:28:53;;;;;;;2.70;0.40;;;;;;;;;;5027976;28;20345;-75
2023/04/28 05:31:19;;;;;;;0.50;0.20;;;11.80;99.90;;;;;;5025886;28;20257;-76
2023/04/28 05:33:45;;;;;;;0.97;0.30;;;11.80;99.90;;;;;;5028371;28;20744;-76
2023/04/28 05:36:11;;;;;;;1.97;0.30;;;11.80;99.90;;;;;;5027407;28;20198;-76
2023/04/28 05:38:37;;;;;;;2.90;0.50;;;11.90;99.90;;;;;;5027297;28;20239;-76
2023/04/28 05:41:03;;;;;;;2.40;0.50;;;11.80;99.90;;;;;;5028562;28;20644;-75
2023/04/28 05:43:28;;;;;;;1.13;0.40;;;11.80;99.90;;;;;;5025565;28;20636;-76
2023/04/28 05:45:54;;;;;;;1.90;0.63;;;11.70;99.90;;;;;;5028716;28;20177;-76
2023/04/28 05:48:20;;;;;;;5.50;1.00;;;10.90;99.90;;;;;;5012339;28;20194;-72
2023/04/28 05:50:45;;;;;;;1.83;0.67;;;11.80;99.90;;;;;;5028752;28;20200;-74
2023/04/28 05:53:11;;;;;;;2.60;0.80;;;11.80;99.90;;;;;;5023917;28;20587;-74
2023/04/28 05:55:37;;;;;;;8.47;1.00;;;11.80;99.90;;;;;;5026825;28;20185;-74
2023/04/28 05:58:03;;;;;;;3.27;0.80;;;11.80;99.90;;;;;;5025147;28;20197;-74
2023/04/28 06:00:29;;;;;;;3.23;1.30;;;11.80;99.90;;;;;;5026354;28;20198;-74
2023/04/28 06:02:55;;;;;;;4.00;1.20;;;;;;;;;;5009267;28;20209;-74
2023/04/28 06:05:21;;;;;;;2.40;1.10;;;11.80;99.90;;;;;;5026705;28;20643;-74
2023/04/28 06:07:47;;;;;;;4.90;1.43;;;11.80;99.90;;;;;;5027404;28;20196;-74
2023/04/28 06:10:12;;;;;;;2.60;1.30;;;11.80;99.90;;;;;;5025018;28;20210;-74
2023/04/28 06:12:38;;;;;;;2.33;1.40;;;11.80;99.90;;;;;;4994327;28;20296;-73
2023/04/28 06:15:05;;;;;;;6.30;1.70;;;11.80;99.90;;;;;;5025885;28;20179;-74
2023/04/28 06:17:32;;;;;;;4.87;1.90;;;11.90;99.90;;;;;;5027210;28;20673;-73
2023/04/28 06:19:58;;;;;;;5.03;2.00;;;11.80;99.90;;;;;;5027590;28;20170;-74
2023/04/28 06:22:26;;;;;;;4.00;1.80;;;11.90;99.90;;;;;;5027016;28;20197;-73
2023/04/28 06:24:52;;;;;;;4.17;1.80;;;11.80;99.90;;;;;;5024109;28;20649;-73
2023/04/28 06:27:17;;;;;;;5.67;2.27;;;11.80;99.90;;;;;;5027866;28;20268;-73
2023/04/28 06:29:43;;;;;;;3.83;1.50;;;11.90;99.90;;;;;;5025472;28;20566;-75
2023/04/28 06:32:09;;;;;;;6.10;1.73;;;11.80;99.90;;;;;;5021724;28;20217;-75
2023/04/28 06:34:36;;;;;;;4.03;1.93;;;11.80;99.90;;;;;;5025052;28;20645;-72
2023/04/28 06:37:02;;;;;;;4.00;2.20;;;;;;;;;;5025259;28;20181;-72
2023/04/28 06:39:28;;;;;;;6.50;2.43;;;11.90;99.90;;;;;;5003441;28;20178;-73
2023/04/28 06:41:53;;;;;;;4.40;2.20;;;11.90;99.90;;;;;;5026772;28;20744;-72
2023/04/28 06:44:19;;;;;;;5.30;1.73;;;12.00;99.90;;;;;;5027958;28;20189;-74
2023/04/28 06:46:44;;;;;;;3.33;2.03;;;12.00;99.90;;;;;;5022367;28;20166;-74
2023/04/28 06:49:10;;;;;;;3.27;2.30;;;12.00;99.90;;;;;;5021779;28;20661;-76
2023/04/28 06:51:36;;;;;;;3.87;2.17;;;11.90;99.90;;;;;;5023432;28;20236;-70
2023/04/28 06:54:01;;;;;;;6.83;3.00;;;12.00;99.90;;;;;;5027309;28;20269;-72
2023/04/28 06:56:27;;;;;;;6.13;2.97;;;11.90;99.90;;;;;;5024111;28;20308;-73
2023/04/28 06:58:56;;;;;;;6.47;3.60;;;12.00;99.90;;;;;;5029869;28;20549;-73
2023/04/28 07:01:22;;;;;;;6.27;3.57;;;11.90;99.90;;;;;;5026047;28;20272;-73
2023/04/28 07:03:47;;;;;;;7.07;3.97;;;11.80;99.90;;;;;;5024660;28;20284;-73
2023/04/28 07:06:15;;;;;;;6.60;4.60;;;;;;;;;;5026559;28;20181;-74
2023/04/28 07:08:41;;;;;;;9.83;4.27;;;;;;;;;;5026933;28;20186;-75
2023/04/28 07:11:07;;;;;;;6.93;4.53;;;11.90;99.90;;;;;;5026744;28;20634;-74
2023/04/28 07:13:32;;;;;;;7.30;4.87;;;12.10;99.90;;;;;;5021810;28;20210;-78
2023/04/28 07:15:58;;;;;;;10.80;5.50;;;12.10;99.90;;;;;;5029945;28;20170;-84
2023/04/28 07:18:24;;;;;;;13.27;5.63;;;12.40;99.90;;;;;;5022356;28;20205;-82
2023/04/28 07:20:50;;;;;;;9.27;5.20;;;12.40;99.90;;;;;;5027282;28;20186;-70
2023/04/28 07:23:15;;;;;;;10.23;6.07;;;12.50;99.90;;;;;;5023528;28;20178;-70
2023/04/28 07:25:42;;;;;;;11.20;6.23;;;12.60;99.90;;;;;;5025045;28;20228;-70
2023/04/28 07:28:07;;;;;;;9.60;5.37;;;12.60;99.90;;;;;;5024617;28;20713;-71
2023/04/28 07:30:33;;;;;;;10.73;5.70;;;12.50;99.90;;;;;;5025116;28;20174;-70
2023/04/28 07:33:00;;;;;;;12.77;6.77;;;12.70;99.90;;;;;;5030346;28;20259;-70
2023/04/28 07:35:26;;;;;;;10.10;6.37;;;12.60;99.90;;;;;;5022452;28;20784;-69
2023/04/28 07:37:51;;;;;;;8.77;6.73;;;12.80;99.90;;;;;;5035002;28;20196;-69
2023/04/28 07:40:18;;;;;;;9.93;6.50;;;12.80;99.90;;;;;;5023770;28;20634;-69
2023/04/28 07:42:44;;;;;;;10.53;6.40;;;12.80;99.90;;;;;;5026251;28;20178;-69
2023/04/28 07:45:10;;;;;;;11.83;6.87;;;12.90;99.90;;;;;;5021720;28;20189;-71
2023/04/28 07:47:36;;;;;;;14.40;6.70;;;12.90;99.90;;;;;;5029806;28;20170;-71
2023/04/28 07:50:04;;;;;;;10.07;6.23;;;13.00;99.90;;;;;;5023156;28;20194;-70
2023/04/28 07:52:30;;;;;;;10.83;6.70;;;13.10;99.90;;;;;;5028924;28;20307;-70
2023/04/28 07:54:56;;;;;;;11.53;6.30;;;13.20;99.90;;;;;;5024735;28;20182;-71
2023/04/28 07:57:22;;;;;;;11.17;6.70;;;13.30;99.90;;;;;;5026223;28;20180;-70
2023/04/28 07:59:47;;;;;;;11.70;7.40;;;13.40;99.90;;;;;;5024429;28;20233;-70
2023/04/28 08:02:13;;;;;;;9.13;7.03;;;13.60;99.90;;;;;;5021516;28;20272;-70
2023/04/28 08:04:39;;;;;;;11.48;6.70;;;13.70;99.90;;;;;;5025501;28;20194;-69
2023/04/28 08:07:05;;;;;;;9.20;6.30;;;13.80;99.90;;;;;;5022078;28;20182;-70
2023/04/28 08:09:31;;;;;;;9.30;6.32;;;13.90;99.90;;;;;;5026270;28;20257;-70
2023/04/28 08:11:57;;;;;;;14.75;7.10;;;14.00;99.90;;;;;;5024854;28;20650;-70
2023/04/28 08:14:23;;;;;;;10.18;6.78;;;14.20;99.90;;;;;;5026430;28;20220;-70
2023/04/28 08:16:49;;;;;;;11.75;7.05;;;14.00;99.90;;;;;;5021540;28;20182;-71
2023/04/28 08:19:15;;;;;;;12.02;6.93;;;14.10;99.90;;;;;;5027975;28;20252;-73
2023/04/28 08:21:41;;;;;;;13.77;7.75;;;14.50;99.90;;;;;;5004834;28;20186;-72
2023/04/28 08:24:09;;;;;;;11.18;6.82;;;15.10;99.90;;;;;;5024544;28;20231;-72
2023/04/28 08:26:38;;;;;;;10.68;6.50;;;15.00;99.90;;;;;;5023299;28;20201;-72
2023/04/28 08:29:04;;;;;;;13.38;7.05;;;14.60;99.90;;;;;;5023915;28;20180;-77
2023/04/28 08:31:30;;;;;;;10.40;5.85;;;14.20;99.90;;;;;;5028165;28;20185;-74
2023/04/28 08:33:56;;;;;;;10.38;6.85;;;;;;;;;;5029702;28;20185;-75
2023/04/28 08:36:23;;;;;;;13.35;6.90;;;14.30;99.90;;;;;;5024410;28;20648;-75
2023/04/28 08:38:49;;;;;;;14.45;7.85;;;14.20;99.90;;;;;;5024402;28;20174;-76
2023/04/28 08:41:15;;;;;;;10.82;7.45;;;14.10;99.90;;;;;;5028872;28;20181;-72
2023/04/28 08:43:42;;;;;;;12.80;7.43;;;13.90;99.90;;;;;;5025622;28;20217;-76
2023/04/28 08:46:08;;;;;;;17.25;8.00;;;13.90;99.90;;;;;;5025520;28;20190;-75
2023/04/28 08:48:44;;;;;;;12.25;7.97;;;13.90;99.90;;;;;;5021347;28;20540;-76
2023/04/28 08:51:17;;;;;;;10.77;7.30;;;14.00;99.90;;;;;;5021150;28;20185;-78
2023/04/28 08:53:52;;;;;;;11.48;6.85;;;14.20;99.90;;;;;;5024201;28;20209;-77
2023/04/28 08:56:20;;;;;;;12.38;8.50;;;14.20;99.90;;;;;;5024941;28;20688;-76
2023/04/28 08:58:45;;;;;;;11.02;7.78;;;14.40;99.90;;;;;;5021076;28;20206;-76
2023/04/28 09:01:11;;;;;;;15.30;8.80;;;14.40;99.90;;;;;;5028482;28;20339;-75
2023/04/28 09:03:36;;;;;;;12.32;8.00;;;14.50;99.90;;;;;;5023431;28;20178;-76
2023/04/28 09:06:02;;;;;;;16.42;9.20;;;14.20;99.90;;;;;;5025038;28;20174;-77
2023/04/28 09:08:27;;;;;;;11.95;8.68;;;14.20;99.90;;;;;;5022097;28;20640;-76
2023/04/28 09:11:08;;;;;;;14.20;8.52;;;14.20;99.90;;;;;;5024355;28;20648;-78
2023/04/28 09:13:34;;;;;;;14.70;9.15;;;14.20;99.90;;;;;;5024622;28;20638;-78
2023/04/28 09:16:01;;;;;;;17.23;8.65;;;14.20;99.90;;;;;;5025073;28;20232;-77
2023/04/28 09:18:33;;;;;;;14.82;8.05;;;14.10;99.90;;;;;;5020145;28;20178;-77
2023/04/28 09:21:07;;;;;;;12.77;8.40;;;14.20;99.90;;;;;;5025006;28;20212;-77
2023/04/28 09:23:34;;;;;;;19.70;8.07;;;14.10;99.90;;;;;;5020615;28;20191;-76
2023/04/28 09:26:06;;;;;;;12.77;7.55;;;14.20;99.90;;;;;;5028166;28;20228;-75
2023/04/28 09:28:34;;;;;;;16.88;8.60;;;14.20;99.90;;;;;;5022247;28;20181;-76
2023/04/28 09:31:00;;;;;;;13.18;7.88;;;14.20;99.90;;;;;;5024179;28;20244;-76
2023/04/28 09:33:26;;;;;;;11.35;7.00;;;14.30;99.90;;;;;;5023995;28;20220;-76
2023/04/28 09:35:52;;;;;;;13.30;7.60;;;14.20;99.90;;;;;;5025425;28;20177;-76
2023/04/28 09:38:19;;;;;;;11.65;7.10;;;14.30;99.90;;;;;;5025140;28;20228;-76
2023/04/28 09:41:03;;;;;;;11.88;7.57;;;14.40;99.90;;;;;;5022941;28;20217;-81
2023/04/28 09:43:31;;;;;;;12.73;8.38;;;14.40;99.90;;;;;;5010165;28;21238;-83
2023/04/28 09:45:59;;;;;;;52.88;10.90;;;14.60;99.90;;;;;;5034396;28;20185;-82
2023/04/28 09:48:33;;;;;;;27.88;9.23;;;14.90;99.90;;;;;;5028359;28;20189;-81
2023/04/28 09:51:06;;;;;;;15.63;8.13;;;15.20;99.90;;;;;;5031828;28;20683;-82
2023/04/28 09:53:33;;;;;;;12.55;7.65;;;15.10;99.90;;;;;;5030112;28;20226;-81
2023/04/28 09:56:00;;;;;;;37.10;9.55;;;15.40;99.90;;;;;;5030159;28;20220;-80
2023/04/28 09:58:27;;;;;;;13.05;7.47;;;16.10;99.90;;;;;;5025946;28;20190;-82
2023/04/28 10:00:58;;;;;;;11.73;7.93;;;16.60;99.90;;;;;;5028114;28;20170;-81
2023/04/28 10:03:26;;;;;;;11.63;7.43;;;16.90;99.90;;;;;;5026553;28;20169;-80
2023/04/28 10:05:52;;;;;;;12.70;6.70;;;17.40;99.90;;;;;;5024535;28;20182;-80
2023/04/28 10:08:22;;;;;;;11.48;6.55;;;17.60;99.90;;;;;;5022073;28;20526;-81
2023/04/28 10:10:53;;;;;;;10.65;6.80;;;17.60;99.90;;;;;;5031280;28;20221;-82
2023/04/28 10:13:20;;;;;;;9.52;6.78;;;18.50;99.90;;;;;;5027666;28;20202;-82
2023/04/28 10:15:46;;;;;;;13.70;6.47;;;19.20;99.90;;;;;;5029837;28;20166;-83
2023/04/28 10:18:16;;;;;;;9.13;6.30;;;19.80;99.90;;;;;;5028353;28;20645;-83
2023/04/28 10:20:51;;;;;;;10.40;5.43;;;20.10;99.90;;;;;;5030576;28;20658;-81
2023/04/28 10:23:23;;;;;;;6.78;4.53;;;20.40;99.90;;;;;;5030679;28;20660;-80
2023/04/28 10:25:53;;;;;;;9.10;4.70;;;20.50;99.90;;;;;;5032096;28;20170;-83
2023/04/28 10:28:19;;;;;;;7.78;4.00;;;20.50;99.90;;;;;;5028005;28;20189;-82
2023/04/28 10:31:08;;;;;;;10.35;4.32;;;20.70;99.90;;;;;;5029845;28;20253;-82
2023/04/28 10:33:34;;;;;;;5.93;3.60;;;20.60;99.90;;;;;;5030418;28;20214;-83
2023/04/28 10:36:00;;;;;;;5.65;3.78;;;20.60;99.90;;;;;;5023179;28;20221;-83
2023/04/28 10:38:25;;;;;;;10.60;4.55;;;21.00;99.90;;;;;;5030817;28;20184;-84
2023/04/28 10:40:59;;;;;;;5.85;4.25;;;21.50;99.90;;;;;;5028096;28;20236;-84
2023/04/28 10:43:29;;;;;;;5.53;3.50;;;21.80;99.90;;;;;;5025617;28;20231;-84
2023/04/28 10:46:00;;;;;;;5.25;3.60;;;22.00;99.90;;;;;;5026712;28;20208;-84
2023/04/28 10:48:29;;;;;;;5.80;4.07;;;21.40;99.90;;;;;;5026124;28;20182;-84
2023/04/28 10:51:04;;;;;;;7.72;3.72;;;20.90;99.90;;;;;;5030860;28;20185;-80
2023/04/28 10:53:45;;;;;;;6.30;3.88;;;21.00;99.90;;;;;;5028620;28;20232;-83
2023/04/28 10:56:11;;;;;;;5.93;3.97;;;;;;;;;;5029370;28;20256;-82
2023/04/28 10:58:45;;;;;;;6.93;4.68;;;22.00;99.90;;;;;;5022587;28;20213;-79
2023/04/28 11:01:20;;;;;;;6.82;4.47;;;22.00;99.90;;;;;;5022814;28;20707;-79
2023/04/28 11:03:45;;;;;;;8.80;4.60;;;21.90;99.90;;;;;;5027040;28;20177;-85
2023/04/28 11:06:36;;;;;;;8.57;4.72;;;22.00;99.90;;;;;;5028415;28;20677;-84
2023/04/28 11:09:13;;;;;;;7.47;3.92;;;22.20;99.90;;;;;;5023207;28;20226;-86
2023/04/28 11:12:01;;;;;;;7.43;4.07;;;22.30;99.90;;;;;;5026892;28;20186;-85
2023/04/28 11:14:31;;;;;;;6.43;4.00;;;22.60;99.90;;;;;;5025591;28;20227;-86
2023/04/28 11:17:02;;;;;;;8.15;4.20;;;23.30;99.90;;;;;;5020558;28;20238;-86
2023/04/28 11:19:39;;;;;;;7.78;4.00;;;22.40;99.90;;;;;;5027348;28;20178;-85
2023/04/28 11:22:12;;;;;;;7.32;4.53;;;22.50;99.90;;;;;;5025607;28;20641;-82
2023/04/28 11:24:37;;;;;;;5.70;4.55;;;22.90;99.90;;;;;;5034519;28;20193;-84
2023/04/28 11:27:03;;;;;;;7.45;4.50;;;23.00;99.90;;;;;;5040056;28;20740;-84
2023/04/28 11:29:42;;;;;;;10.00;4.22;;;23.20;99.90;;;;;;5033679;28;20173;-83
2023/04/28 11:32:09;;;;;;;9.02;4.88;;;23.00;99.90;;;;;;5030868;28;20292;-83
2023/04/28 11:34:35;;;;;;;5.30;3.60;;;23.50;99.90;;;;;;5026487;28;20201;-84
2023/04/28 11:37:02;;;;;;;5.88;3.95;;;23.10;99.90;;;;;;5030337;28;20170;-84
2023/04/28 11:39:30;;;;;;;8.55;3.80;;;23.20;99.90;;;;;;5026898;28;20181;-83
2023/04/28 11:41:56;;;;;;;6.97;4.95;;;23.10;99.90;;;;;;5026024;28;20181;-80
2023/04/28 11:44:24;;;;;;;12.05;4.97;;;23.00;99.90;;;;;;5028392;28;20185;-82
2023/04/28 11:46:59;;;;;;;7.13;5.07;;;23.10;99.90;;;;;;5019293;28;20166;-84
2023/04/28 11:49:29;;;;;;;9.95;5.10;;;23.00;99.90;;;;;;5017027;28;20186;-83
2023/04/28 11:51:56;;;;;;;10.63;4.88;;;23.00;99.90;;;;;;5024014;28;20202;-81
2023/04/28 11:54:23;;;;;;;5.85;4.35;;;22.60;99.90;;;;;;5026733;28;20217;-84
2023/04/28 11:56:49;;;;;;;8.20;4.75;;;23.60;99.90;;;;;;5025602;28;20194;-83
2023/04/28 11:59:14;;;;;;;7.07;4.82;;;24.30;99.90;;;;;;5024034;28;20323;-81
2023/04/28 12:01:48;;;;;;;7.93;4.97;;;24.10;1.00;;;;;;5029754;28;20643;-82
2023/04/28 12:04:25;;;;;;;7.22;4.57;;;24.80;1.00;;;;;;5024355;28;20174;-83
2023/04/28 12:07:09;;;;;;;7.60;4.63;;;24.60;1.00;;;;;;5021782;28;20265;-81
2023/04/28 12:09:37;;;;;;;6.80;5.32;;;25.40;1.00;;;;;;5025977;28;20225;-80
2023/04/28 12:12:30;;;;;;;10.88;6.90;;;25.00;1.00;;;;;;5024205;28;20256;-81
2023/04/28 12:15:01;;;;;;;9.27;6.43;;;24.10;1.00;;;;;;5017413;28;20190;-81
2023/04/28 12:17:28;;;;;;;9.50;6.60;;;23.30;1.00;;;;;;5024774;28;20181;-82
2023/04/28 12:19:59;;;;;;;10.35;7.40;;;23.60;1.00;;;;;;5022096;28;20200;-80
2023/04/28 12:22:25;;;;;;;9.23;6.88;;;22.90;1.00;;;;;;5024190;28;20182;-81
2023/04/28 12:25:11;;;;;;;10.32;7.13;;;23.00;1.00;;;;;;5028238;28;20185;-82
2023/04/28 12:27:39;;;;;;;8.75;6.45;;;23.70;99.90;;;;;;5024023;28;20231;-82
2023/04/28 12:30:27;;;;;;;10.52;8.02;;;23.80;1.00;;;;;;5025145;28;20182;-82
2023/04/28 12:32:54;;;;;;;12.93;8.93;;;24.50;99.90;;;;;;5025759;28;20201;-84
2023/04/28 12:35:22;;;;;;;12.32;8.43;;;24.30;99.90;;;;;;5027114;28;20352;-83
2023/04/28 12:37:48;;;;;;;13.32;9.65;;;23.40;99.90;;;;;;5024376;28;20186;-83
2023/04/28 12:40:13;;;;;;;13.35;9.25;;;22.40;1.00;;;;;;5025414;28;20193;-82
2023/04/28 12:42:39;;;;;;;14.48;10.48;;;21.70;1.00;;;;;;5021298;28;20193;-81
2023/04/28 12:45:06;;;;;;;16.05;11.10;;;21.80;99.90;;;;;;5028742;28;20257;-82
2023/04/28 12:47:32;;;;;;;19.98;12.60;;;21.80;1.00;;;;;;5028130;28;20653;-83